sensor_id;sensor_type;location;lat;lon;timestamp;temperature;humidity
62589;DHT22;58504;48.770;9.148;2023-02-22T00:00:22;20.30;51.70
62589;DHT22;58504;48.770;9.148;2023-02-22T00:02:55;20.30;51.70
62589;DHT22;58504;48.770;9.148;2023-02-22T00:05:25;20.30;51.80
62589;DHT22;58504;48.770;9.148;2023-02-22T00:07:52;20.20;51.70
62589;DHT22;58504;48.770;9.148;2023-02-22T00:10:22;20.20;51.80
62589;DHT22;58504;48.770;9.148;2023-02-22T00:12:51;20.20;51.80
62589;DHT22;58504;48.770;9.148;2023-02-22T00:15:20;20.20;51.80
62589;DHT22;58504;48.770;9.148;2023-02-22T00:17:47;20.20;51.80
62589;DHT22;58504;48.770;9.148;2023-02-22T00:20:15;20.10;51.80
62589;DHT22;58504;48.770;9.148;2023-02-22T00:22:45;20.10;51.90
62589;DHT22;58504;48.770;9.148;2023-02-22T00:25:13;20.10;51.90
62589;DHT22;58504;48.770;9.148;2023-02-22T00:27:41;20.10;52.00
62589;DHT22;58504;48.770;9.148;2023-02-22T00:30:13;20.10;52.00
62589;DHT22;58504;48.770;9.148;2023-02-22T00:32:43;20.00;52.00
62589;DHT22;58504;48.770;9.148;2023-02-22T00:35:10;20.00;52.10
62589;DHT22;58504;48.770;9.148;2023-02-22T00:37:37;20.00;52.00
62589;DHT22;58504;48.770;9.148;2023-02-22T00:40:07;20.00;52.10
62589;DHT22;58504;48.770;9.148;2023-02-22T00:42:34;19.90;52.00
62589;DHT22;58504;48.770;9.148;2023-02-22T00:45:01;19.90;52.10
62589;DHT22;58504;48.770;9.148;2023-02-22T00:47:29;19.90;52.10
62589;DHT22;58504;48.770;9.148;2023-02-22T00:49:56;19.90;52.20
62589;DHT22;58504;48.770;9.148;2023-02-22T00:52:23;19.90;52.20
62589;DHT22;58504;48.770;9.148;2023-02-22T00:54:50;19.90;52.30
62589;DHT22;58504;48.770;9.148;2023-02-22T00:57:17;19.90;52.30
62589;DHT22;58504;48.770;9.148;2023-02-22T00:59:44;19.80;52.30
62589;DHT22;58504;48.770;9.148;2023-02-22T01:02:11;19.80;52.20
62589;DHT22;58504;48.770;9.148;2023-02-22T01:04:39;19.80;52.30
62589;DHT22;58504;48.770;9.148;2023-02-22T01:07:06;19.80;52.20
62589;DHT22;58504;48.770;9.148;2023-02-22T01:09:33;19.80;52.20
62589;DHT22;58504;48.770;9.148;2023-02-22T01:12:00;19.80;52.20
62589;DHT22;58504;48.770;9.148;2023-02-22T01:14:27;19.80;52.30
62589;DHT22;58504;48.770;9.148;2023-02-22T01:16:55;19.80;52.30
62589;DHT22;58504;48.770;9.148;2023-02-22T01:19:22;19.80;52.30
62589;DHT22;58504;48.770;9.148;2023-02-22T01:21:50;19.80;52.30
62589;DHT22;58504;48.770;9.148;2023-02-22T01:24:19;19.70;52.30
62589;DHT22;58504;48.770;9.148;2023-02-22T01:26:50;19.70;52.30
62589;DHT22;58504;48.770;9.148;2023-02-22T01:29:17;19.80;52.40
62589;DHT22;58504;48.770;9.148;2023-02-22T01:31:51;19.70;52.30
62589;DHT22;58504;48.770;9.148;2023-02-22T01:34:19;19.70;52.30
62589;DHT22;58504;48.770;9.148;2023-02-22T01:36:46;19.70;52.30
62589;DHT22;58504;48.770;9.148;2023-02-22T01:39:14;19.70;52.40
62589;DHT22;58504;48.770;9.148;2023-02-22T01:41:42;19.70;52.40
62589;DHT22;58504;48.770;9.148;2023-02-22T01:44:18;19.70;52.40
62589;DHT22;58504;48.770;9.148;2023-02-22T01:46:45;19.70;52.40
62589;DHT22;58504;48.770;9.148;2023-02-22T01:49:12;19.60;52.30
62589;DHT22;58504;48.770;9.148;2023-02-22T01:51:43;19.60;52.30
62589;DHT22;58504;48.770;9.148;2023-02-22T01:54:13;19.70;52.40
62589;DHT22;58504;48.770;9.148;2023-02-22T01:56:47;19.60;52.30
62589;DHT22;58504;48.770;9.148;2023-02-22T01:59:16;19.60;52.40
62589;DHT22;58504;48.770;9.148;2023-02-22T02:01:44;19.60;52.40
62589;DHT22;58504;48.770;9.148;2023-02-22T02:04:14;19.60;52.40
62589;DHT22;58504;48.770;9.148;2023-02-22T02:06:41;19.60;52.40
62589;DHT22;58504;48.770;9.148;2023-02-22T02:09:14;19.60;52.40
62589;DHT22;58504;48.770;9.148;2023-02-22T02:11:43;19.60;52.40
62589;DHT22;58504;48.770;9.148;2023-02-22T02:14:12;19.60;52.40
62589;DHT22;58504;48.770;9.148;2023-02-22T02:16:41;19.60;52.50
62589;DHT22;58504;48.770;9.148;2023-02-22T02:19:17;19.60;52.50
62589;DHT22;58504;48.770;9.148;2023-02-22T02:22:07;19.60;52.50
62589;DHT22;58504;48.770;9.148;2023-02-22T02:24:56;19.50;52.50
62589;DHT22;58504;48.770;9.148;2023-02-22T02:27:39;19.50;52.50
62589;DHT22;58504;48.770;9.148;2023-02-22T02:30:47;19.50;52.50
62589;DHT22;58504;48.770;9.148;2023-02-22T02:33:24;19.50;52.50
62589;DHT22;58504;48.770;9.148;2023-02-22T02:36:00;19.50;52.60
62589;DHT22;58504;48.770;9.148;2023-02-22T02:38:33;19.40;52.50
62589;DHT22;58504;48.770;9.148;2023-02-22T02:41:06;19.50;52.60
62589;DHT22;58504;48.770;9.148;2023-02-22T02:43:40;19.50;52.60
62589;DHT22;58504;48.770;9.148;2023-02-22T02:46:11;19.40;52.60
62589;DHT22;58504;48.770;9.148;2023-02-22T02:48:44;19.50;52.70
62589;DHT22;58504;48.770;9.148;2023-02-22T02:51:12;19.40;52.70
62589;DHT22;58504;48.770;9.148;2023-02-22T02:53:44;19.40;52.70
62589;DHT22;58504;48.770;9.148;2023-02-22T02:56:12;19.40;52.70
62589;DHT22;58504;48.770;9.148;2023-02-22T02:58:45;19.40;52.70
62589;DHT22;58504;48.770;9.148;2023-02-22T03:01:22;19.40;52.70
62589;DHT22;58504;48.770;9.148;2023-02-22T03:04:20;19.40;52.80
62589;DHT22;58504;48.770;9.148;2023-02-22T03:07:04;19.40;52.80
62589;DHT22;58504;48.770;9.148;2023-02-22T03:09:45;19.40;52.80
62589;DHT22;58504;48.770;9.148;2023-02-22T03:12:20;19.40;52.90
62589;DHT22;58504;48.770;9.148;2023-02-22T03:14:57;19.30;52.90
62589;DHT22;58504;48.770;9.148;2023-02-22T03:17:35;19.30;52.80
62589;DHT22;58504;48.770;9.148;2023-02-22T03:20:12;19.30;52.80
62589;DHT22;58504;48.770;9.148;2023-02-22T03:22:47;19.30;52.90
62589;DHT22;58504;48.770;9.148;2023-02-22T03:25:21;19.30;52.90
62589;DHT22;58504;48.770;9.148;2023-02-22T03:27:50;19.30;52.90
62589;DHT22;58504;48.770;9.148;2023-02-22T03:30:21;19.30;52.90
62589;DHT22;58504;48.770;9.148;2023-02-22T03:32:52;19.20;52.90
62589;DHT22;58504;48.770;9.148;2023-02-22T03:35:25;19.30;53.00
62589;DHT22;58504;48.770;9.148;2023-02-22T03:37:57;19.30;53.10
62589;DHT22;58504;48.770;9.148;2023-02-22T03:40:27;19.20;53.00
62589;DHT22;58504;48.770;9.148;2023-02-22T03:42:59;19.30;53.10
62589;DHT22;58504;48.770;9.148;2023-02-22T03:45:28;19.30;53.10
62589;DHT22;58504;48.770;9.148;2023-02-22T03:48:00;19.30;53.10
62589;DHT22;58504;48.770;9.148;2023-02-22T03:50:32;19.20;53.10
62589;DHT22;58504;48.770;9.148;2023-02-22T03:53:00;19.20;53.10
62589;DHT22;58504;48.770;9.148;2023-02-22T03:55:27;19.20;53.10
62589;DHT22;58504;48.770;9.148;2023-02-22T03:57:57;19.30;53.20
62589;DHT22;58504;48.770;9.148;2023-02-22T04:00:27;19.20;53.10
62589;DHT22;58504;48.770;9.148;2023-02-22T04:02:55;19.20;53.10
62589;DHT22;58504;48.770;9.148;2023-02-22T04:05:22;19.20;53.10
62589;DHT22;58504;48.770;9.148;2023-02-22T04:07:52;19.20;53.10
62589;DHT22;58504;48.770;9.148;2023-02-22T04:10:18;19.10;53.10
62589;DHT22;58504;48.770;9.148;2023-02-22T04:12:45;19.10;53.00
62589;DHT22;58504;48.770;9.148;2023-02-22T04:15:14;19.10;53.10
62589;DHT22;58504;48.770;9.148;2023-02-22T04:17:41;19.10;53.10
62589;DHT22;58504;48.770;9.148;2023-02-22T04:20:09;19.10;53.10
62589;DHT22;58504;48.770;9.148;2023-02-22T04:22:38;19.10;53.10
62589;DHT22;58504;48.770;9.148;2023-02-22T04:25:07;19.10;53.10
62589;DHT22;58504;48.770;9.148;2023-02-22T04:27:34;19.10;53.10
62589;DHT22;58504;48.770;9.148;2023-02-22T04:30:01;19.10;53.00
62589;DHT22;58504;48.770;9.148;2023-02-22T04:32:27;19.20;52.90
62589;DHT22;58504;48.770;9.148;2023-02-22T04:34:54;19.50;52.60
62589;DHT22;58504;48.770;9.148;2023-02-22T04:37:21;20.00;52.10
62589;DHT22;58504;48.770;9.148;2023-02-22T04:39:48;20.50;51.40
62589;DHT22;58504;48.770;9.148;2023-02-22T04:42:16;20.90;50.50
62589;DHT22;58504;48.770;9.148;2023-02-22T04:44:42;21.20;49.70
62589;DHT22;58504;48.770;9.148;2023-02-22T04:47:09;21.60;49.00
62589;DHT22;58504;48.770;9.148;2023-02-22T04:49:36;21.80;48.40
62589;DHT22;58504;48.770;9.148;2023-02-22T04:52:03;22.00;48.00
62589;DHT22;58504;48.770;9.148;2023-02-22T04:54:30;22.20;47.70
62589;DHT22;58504;48.770;9.148;2023-02-22T04:56:56;22.20;47.40
62589;DHT22;58504;48.770;9.148;2023-02-22T04:59:24;22.30;47.30
62589;DHT22;58504;48.770;9.148;2023-02-22T05:01:51;22.40;47.20
62589;DHT22;58504;48.770;9.148;2023-02-22T05:04:18;22.50;47.00
62589;DHT22;58504;48.770;9.148;2023-02-22T05:06:46;22.50;46.90
62589;DHT22;58504;48.770;9.148;2023-02-22T05:09:13;22.60;46.80
62589;DHT22;58504;48.770;9.148;2023-02-22T05:11:39;22.60;46.70
62589;DHT22;58504;48.770;9.148;2023-02-22T05:14:06;22.70;46.60
62589;DHT22;58504;48.770;9.148;2023-02-22T05:16:34;22.80;46.50
62589;DHT22;58504;48.770;9.148;2023-02-22T05:19:01;22.80;46.50
62589;DHT22;58504;48.770;9.148;2023-02-22T05:21:28;22.80;46.40
62589;DHT22;58504;48.770;9.148;2023-02-22T05:23:55;22.80;46.40
62589;DHT22;58504;48.770;9.148;2023-02-22T05:26:22;22.90;46.30
62589;DHT22;58504;48.770;9.148;2023-02-22T05:28:48;22.90;46.20
62589;DHT22;58504;48.770;9.148;2023-02-22T05:31:15;23.00;46.20
62589;DHT22;58504;48.770;9.148;2023-02-22T05:33:43;23.00;46.10
62589;DHT22;58504;48.770;9.148;2023-02-22T05:36:10;23.00;46.00
62589;DHT22;58504;48.770;9.148;2023-02-22T05:38:37;23.10;46.10
62589;DHT22;58504;48.770;9.148;2023-02-22T05:41:08;23.10;46.00
62589;DHT22;58504;48.770;9.148;2023-02-22T05:43:35;23.10;45.90
62589;DHT22;58504;48.770;9.148;2023-02-22T05:46:02;23.10;45.80
62589;DHT22;58504;48.770;9.148;2023-02-22T05:48:29;23.10;45.90
62589;DHT22;58504;48.770;9.148;2023-02-22T05:50:57;23.10;45.80
62589;DHT22;58504;48.770;9.148;2023-02-22T05:53:25;23.20;45.90
62589;DHT22;58504;48.770;9.148;2023-02-22T05:55:52;23.20;45.90
62589;DHT22;58504;48.770;9.148;2023-02-22T05:58:19;23.20;45.80
62589;DHT22;58504;48.770;9.148;2023-02-22T06:00:45;23.30;45.80
62589;DHT22;58504;48.770;9.148;2023-02-22T06:03:12;23.30;45.80
62589;DHT22;58504;48.770;9.148;2023-02-22T06:05:39;23.30;45.70
62589;DHT22;58504;48.770;9.148;2023-02-22T06:08:07;23.30;45.70
62589;DHT22;58504;48.770;9.148;2023-02-22T06:10:35;23.30;45.60
62589;DHT22;58504;48.770;9.148;2023-02-22T06:13:03;23.40;45.70
62589;DHT22;58504;48.770;9.148;2023-02-22T06:15:30;23.40;45.70
62589;DHT22;58504;48.770;9.148;2023-02-22T06:17:57;23.40;45.70
62589;DHT22;58504;48.770;9.148;2023-02-22T06:20:26;23.40;45.50
62589;DHT22;58504;48.770;9.148;2023-02-22T06:22:54;23.40;45.60
62589;DHT22;58504;48.770;9.148;2023-02-22T06:25:25;23.40;45.60
62589;DHT22;58504;48.770;9.148;2023-02-22T06:27:52;23.50;45.70
62589;DHT22;58504;48.770;9.148;2023-02-22T06:30:20;23.50;45.70
62589;DHT22;58504;48.770;9.148;2023-02-22T06:32:47;23.40;45.60
62589;DHT22;58504;48.770;9.148;2023-02-22T06:35:14;23.50;45.60
62589;DHT22;58504;48.770;9.148;2023-02-22T06:37:41;23.50;45.60
62589;DHT22;58504;48.770;9.148;2023-02-22T06:40:09;23.50;45.50
62589;DHT22;58504;48.770;9.148;2023-02-22T06:42:37;23.50;45.60
62589;DHT22;58504;48.770;9.148;2023-02-22T06:45:04;23.60;45.70
62589;DHT22;58504;48.770;9.148;2023-02-22T06:47:31;23.60;45.60
62589;DHT22;58504;48.770;9.148;2023-02-22T06:49:58;23.60;45.90
62589;DHT22;58504;48.770;9.148;2023-02-22T06:52:25;23.60;45.80
62589;DHT22;58504;48.770;9.148;2023-02-22T06:54:52;23.70;45.60
62589;DHT22;58504;48.770;9.148;2023-02-22T06:57:19;23.70;45.70
62589;DHT22;58504;48.770;9.148;2023-02-22T06:59:47;23.50;40.90
62589;DHT22;58504;48.770;9.148;2023-02-22T07:02:14;22.70;37.50
62589;DHT22;58504;48.770;9.148;2023-02-22T07:04:41;21.80;38.20
62589;DHT22;58504;48.770;9.148;2023-02-22T07:07:07;21.10;40.70
62589;DHT22;58504;48.770;9.148;2023-02-22T07:09:34;21.20;44.60
62589;DHT22;58504;48.770;9.148;2023-02-22T07:12:01;21.40;46.50
62589;DHT22;58504;48.770;9.148;2023-02-22T07:14:28;21.70;47.00
62589;DHT22;58504;48.770;9.148;2023-02-22T07:16:56;22.00;47.00
62589;DHT22;58504;48.770;9.148;2023-02-22T07:19:22;22.30;46.60
62589;DHT22;58504;48.770;9.148;2023-02-22T07:21:50;22.60;46.20
62589;DHT22;58504;48.770;9.148;2023-02-22T07:24:23;22.70;45.90
62589;DHT22;58504;48.770;9.148;2023-02-22T07:26:51;23.00;46.20
62589;DHT22;58504;48.770;9.148;2023-02-22T07:29:18;23.20;45.90
62589;DHT22;58504;48.770;9.148;2023-02-22T07:31:47;23.30;45.90
62589;DHT22;58504;48.770;9.148;2023-02-22T07:34:15;23.30;45.60
62589;DHT22;58504;48.770;9.148;2023-02-22T07:36:42;23.30;45.80
62589;DHT22;58504;48.770;9.148;2023-02-22T07:39:09;23.30;45.80
62589;DHT22;58504;48.770;9.148;2023-02-22T07:41:35;23.30;45.90
62589;DHT22;58504;48.770;9.148;2023-02-22T07:44:02;23.20;45.90
62589;DHT22;58504;48.770;9.148;2023-02-22T07:46:29;23.20;46.00
62589;DHT22;58504;48.770;9.148;2023-02-22T07:48:56;23.40;45.90
62589;DHT22;58504;48.770;9.148;2023-02-22T07:51:24;23.50;46.20
62589;DHT22;58504;48.770;9.148;2023-02-22T07:53:51;23.70;45.30
62589;DHT22;58504;48.770;9.148;2023-02-22T07:56:18;23.90;45.00
62589;DHT22;58504;48.770;9.148;2023-02-22T07:58:45;24.00;44.80
62589;DHT22;58504;48.770;9.148;2023-02-22T08:01:12;24.10;44.70
62589;DHT22;58504;48.770;9.148;2023-02-22T08:03:38;24.20;44.50
62589;DHT22;58504;48.770;9.148;2023-02-22T08:06:06;24.10;44.50
62589;DHT22;58504;48.770;9.148;2023-02-22T08:08:34;24.10;44.60
62589;DHT22;58504;48.770;9.148;2023-02-22T08:11:01;24.00;44.90
62589;DHT22;58504;48.770;9.148;2023-02-22T08:13:28;24.00;45.20
62589;DHT22;58504;48.770;9.148;2023-02-22T08:15:55;23.90;45.30
62589;DHT22;58504;48.770;9.148;2023-02-22T08:18:24;23.80;45.40
62589;DHT22;58504;48.770;9.148;2023-02-22T08:20:52;23.70;45.50
62589;DHT22;58504;48.770;9.148;2023-02-22T08:23:20;23.50;45.70
62589;DHT22;58504;48.770;9.148;2023-02-22T08:25:49;23.50;45.90
62589;DHT22;58504;48.770;9.148;2023-02-22T08:28:18;23.30;46.10
62589;DHT22;58504;48.770;9.148;2023-02-22T08:30:46;23.30;46.40
62589;DHT22;58504;48.770;9.148;2023-02-22T08:33:15;23.10;46.60
62589;DHT22;58504;48.770;9.148;2023-02-22T08:35:44;23.10;46.90
62589;DHT22;58504;48.770;9.148;2023-02-22T08:38:16;23.10;47.00
62589;DHT22;58504;48.770;9.148;2023-02-22T08:40:44;23.20;46.80
62589;DHT22;58504;48.770;9.148;2023-02-22T08:43:12;23.50;46.50
62589;DHT22;58504;48.770;9.148;2023-02-22T08:45:39;23.70;46.00
62589;DHT22;58504;48.770;9.148;2023-02-22T08:48:06;24.00;45.70
62589;DHT22;58504;48.770;9.148;2023-02-22T08:50:33;24.20;45.20
62589;DHT22;58504;48.770;9.148;2023-02-22T08:53:02;24.30;45.10
62589;DHT22;58504;48.770;9.148;2023-02-22T08:55:31;24.40;44.90
62589;DHT22;58504;48.770;9.148;2023-02-22T08:57:58;24.50;44.70
62589;DHT22;58504;48.770;9.148;2023-02-22T09:00:27;24.40;44.50
62589;DHT22;58504;48.770;9.148;2023-02-22T09:02:57;24.40;44.70
62589;DHT22;58504;48.770;9.148;2023-02-22T09:05:24;24.40;44.70
62589;DHT22;58504;48.770;9.148;2023-02-22T09:07:51;24.40;44.90
62589;DHT22;58504;48.770;9.148;2023-02-22T09:10:20;24.20;45.10
62589;DHT22;58504;48.770;9.148;2023-02-22T09:12:49;24.10;45.40
62589;DHT22;58504;48.770;9.148;2023-02-22T09:15:15;24.00;45.50
62589;DHT22;58504;48.770;9.148;2023-02-22T09:17:44;23.90;45.70
62589;DHT22;58504;48.770;9.148;2023-02-22T09:20:11;23.80;45.80
62589;DHT22;58504;48.770;9.148;2023-02-22T09:22:38;23.70;45.90
62589;DHT22;58504;48.770;9.148;2023-02-22T09:25:06;23.70;46.00
62589;DHT22;58504;48.770;9.148;2023-02-22T09:27:33;23.50;46.10
62589;DHT22;58504;48.770;9.148;2023-02-22T09:30:00;23.50;46.30
62589;DHT22;58504;48.770;9.148;2023-02-22T09:32:27;23.70;46.20
62589;DHT22;58504;48.770;9.148;2023-02-22T09:34:56;24.00;45.90
62589;DHT22;58504;48.770;9.148;2023-02-22T09:37:22;24.20;45.40
62589;DHT22;58504;48.770;9.148;2023-02-22T09:39:49;24.40;45.00
62589;DHT22;58504;48.770;9.148;2023-02-22T09:42:22;24.70;44.70
62589;DHT22;58504;48.770;9.148;2023-02-22T09:44:56;24.70;44.30
62589;DHT22;58504;48.770;9.148;2023-02-22T09:47:36;24.80;44.30
62589;DHT22;58504;48.770;9.148;2023-02-22T09:50:08;24.70;44.20
62589;DHT22;58504;48.770;9.148;2023-02-22T09:52:43;24.70;44.40
62589;DHT22;58504;48.770;9.148;2023-02-22T09:55:19;24.70;44.50
62589;DHT22;58504;48.770;9.148;2023-02-22T09:57:50;24.50;44.60
62589;DHT22;58504;48.770;9.148;2023-02-22T10:00:21;24.40;44.80
62589;DHT22;58504;48.770;9.148;2023-02-22T10:02:59;24.30;45.10
62589;DHT22;58504;48.770;9.148;2023-02-22T10:05:35;24.20;45.30
62589;DHT22;58504;48.770;9.148;2023-02-22T10:08:08;24.00;45.70
62589;DHT22;58504;48.770;9.148;2023-02-22T10:10:38;23.90;45.80
62589;DHT22;58504;48.770;9.148;2023-02-22T10:13:15;23.80;46.10
62589;DHT22;58504;48.770;9.148;2023-02-22T10:15:51;23.80;46.00
62589;DHT22;58504;48.770;9.148;2023-02-22T10:21:33;23.70;46.30
62589;DHT22;58504;48.770;9.148;2023-02-22T10:24:08;23.70;46.20
62589;DHT22;58504;48.770;9.148;2023-02-22T10:26:40;23.70;46.20
62589;DHT22;58504;48.770;9.148;2023-02-22T10:29:13;23.70;46.30
62589;DHT22;58504;48.770;9.148;2023-02-22T10:31:46;23.60;46.30
62589;DHT22;58504;48.770;9.148;2023-02-22T10:34:16;23.60;46.30
62589;DHT22;58504;48.770;9.148;2023-02-22T10:36:49;23.60;46.30
62589;DHT22;58504;48.770;9.148;2023-02-22T10:39:24;23.60;46.30
62589;DHT22;58504;48.770;9.148;2023-02-22T10:41:55;23.70;46.20
62589;DHT22;58504;48.770;9.148;2023-02-22T10:44:23;24.00;45.80
62589;DHT22;58504;48.770;9.148;2023-02-22T10:46:50;24.30;45.20
62589;DHT22;58504;48.770;9.148;2023-02-22T10:49:21;24.70;44.70
62589;DHT22;58504;48.770;9.148;2023-02-22T10:51:58;24.90;44.10
62589;DHT22;58504;48.770;9.148;2023-02-22T10:54:27;25.10;43.70
62589;DHT22;58504;48.770;9.148;2023-02-22T10:56:57;25.20;43.50
62589;DHT22;58504;48.770;9.148;2023-02-22T10:59:27;25.30;43.40
62589;DHT22;58504;48.770;9.148;2023-02-22T11:01:54;25.30;43.20
62589;DHT22;58504;48.770;9.148;2023-02-22T11:04:22;25.30;43.40
62589;DHT22;58504;48.770;9.148;2023-02-22T11:07:08;25.30;43.40
62589;DHT22;58504;48.770;9.148;2023-02-22T11:09:47;25.20;43.50
62589;DHT22;58504;48.770;9.148;2023-02-22T11:12:18;25.10;43.90
62589;DHT22;58504;48.770;9.148;2023-02-22T11:14:46;25.10;44.00
62589;DHT22;58504;48.770;9.148;2023-02-22T11:17:18;24.90;44.20
62589;DHT22;58504;48.770;9.148;2023-02-22T11:19:48;24.80;44.20
62589;DHT22;58504;48.770;9.148;2023-02-22T11:22:21;24.70;44.20
62589;DHT22;58504;48.770;9.148;2023-02-22T11:24:53;24.70;44.50
62589;DHT22;58504;48.770;9.148;2023-02-22T11:27:27;24.60;44.60
62589;DHT22;58504;48.770;9.148;2023-02-22T11:30:07;24.50;44.80
62589;DHT22;58504;48.770;9.148;2023-02-22T11:32:41;24.30;44.90
62589;DHT22;58504;48.770;9.148;2023-02-22T11:35:29;24.30;45.10
62589;DHT22;58504;48.770;9.148;2023-02-22T11:38:14;24.10;45.20
62589;DHT22;58504;48.770;9.148;2023-02-22T11:40:42;24.00;45.00
62589;DHT22;58504;48.770;9.148;2023-02-22T11:43:14;23.80;45.30
62589;DHT22;58504;48.770;9.148;2023-02-22T11:45:59;23.80;45.60
62589;DHT22;58504;48.770;9.148;2023-02-22T11:48:29;23.80;45.80
62589;DHT22;58504;48.770;9.148;2023-02-22T11:51:08;23.70;45.80
62589;DHT22;58504;48.770;9.148;2023-02-22T11:53:52;23.70;45.90
62589;DHT22;58504;48.770;9.148;2023-02-22T11:56:27;23.60;46.00
62589;DHT22;58504;48.770;9.148;2023-02-22T11:59:00;23.60;46.30
62589;DHT22;58504;48.770;9.148;2023-02-22T12:01:33;23.80;46.10
62589;DHT22;58504;48.770;9.148;2023-02-22T12:04:22;24.20;45.60
62589;DHT22;58504;48.770;9.148;2023-02-22T12:07:03;24.70;45.10
62589;DHT22;58504;48.770;9.148;2023-02-22T12:09:40;24.90;44.30
62589;DHT22;58504;48.770;9.148;2023-02-22T12:12:14;25.10;43.90
62589;DHT22;58504;48.770;9.148;2023-02-22T12:14:53;25.20;43.60
62589;DHT22;58504;48.770;9.148;2023-02-22T12:17:32;25.30;43.50
62589;DHT22;58504;48.770;9.148;2023-02-22T12:20:04;25.30;43.60
62589;DHT22;58504;48.770;9.148;2023-02-22T12:22:45;25.20;43.80
62589;DHT22;58504;48.770;9.148;2023-02-22T12:25:19;25.20;44.10
62589;DHT22;58504;48.770;9.148;2023-02-22T12:27:51;25.20;44.50
62589;DHT22;58504;48.770;9.148;2023-02-22T12:30:22;25.10;44.90
62589;DHT22;58504;48.770;9.148;2023-02-22T12:32:52;25.10;45.30
62589;DHT22;58504;48.770;9.148;2023-02-22T12:35:22;25.10;45.90
62589;DHT22;58504;48.770;9.148;2023-02-22T12:37:55;24.90;46.30
62589;DHT22;58504;48.770;9.148;2023-02-22T12:40:32;24.90;46.80
62589;DHT22;58504;48.770;9.148;2023-02-22T12:43:05;24.80;46.80
62589;DHT22;58504;48.770;9.148;2023-02-22T12:45:37;24.80;46.80
62589;DHT22;58504;48.770;9.148;2023-02-22T12:48:15;24.70;46.90
62589;DHT22;58504;48.770;9.148;2023-02-22T12:50:47;24.70;46.80
62589;DHT22;58504;48.770;9.148;2023-02-22T12:53:19;24.70;46.90
62589;DHT22;58504;48.770;9.148;2023-02-22T12:55:50;24.60;46.80
62589;DHT22;58504;48.770;9.148;2023-02-22T12:58:21;24.50;47.10
62589;DHT22;58504;48.770;9.148;2023-02-22T13:00:56;24.50;47.30
62589;DHT22;58504;48.770;9.148;2023-02-22T13:03:34;24.40;47.40
62589;DHT22;58504;48.770;9.148;2023-02-22T13:06:15;24.30;47.50
62589;DHT22;58504;48.770;9.148;2023-02-22T13:08:50;24.20;47.50
62589;DHT22;58504;48.770;9.148;2023-02-22T13:11:25;24.20;47.80
62589;DHT22;58504;48.770;9.148;2023-02-22T13:14:05;24.20;47.90
62589;DHT22;58504;48.770;9.148;2023-02-22T13:16:39;24.20;47.80
62589;DHT22;58504;48.770;9.148;2023-02-22T13:19:23;24.10;47.70
62589;DHT22;58504;48.770;9.148;2023-02-22T13:21:56;24.10;47.70
62589;DHT22;58504;48.770;9.148;2023-02-22T13:24:29;24.10;47.60
62589;DHT22;58504;48.770;9.148;2023-02-22T13:27:00;24.10;47.60
62589;DHT22;58504;48.770;9.148;2023-02-22T13:29:32;24.10;47.80
62589;DHT22;58504;48.770;9.148;2023-02-22T13:32:19;24.10;47.60
62589;DHT22;58504;48.770;9.148;2023-02-22T13:35:07;24.00;47.60
62589;DHT22;58504;48.770;9.148;2023-02-22T13:38:00;24.00;47.90
62589;DHT22;58504;48.770;9.148;2023-02-22T13:40:53;23.90;47.80
62589;DHT22;58504;48.770;9.148;2023-02-22T13:44:07;23.90;48.00
62589;DHT22;58504;48.770;9.148;2023-02-22T13:47:06;23.80;48.00
62589;DHT22;58504;48.770;9.148;2023-02-22T13:49:53;23.80;48.10
62589;DHT22;58504;48.770;9.148;2023-02-22T13:52:28;23.80;48.00
62589;DHT22;58504;48.770;9.148;2023-02-22T13:54:58;23.80;48.10
62589;DHT22;58504;48.770;9.148;2023-02-22T13:57:28;23.70;48.00
62589;DHT22;58504;48.770;9.148;2023-02-22T14:00:23;23.70;48.20
62589;DHT22;58504;48.770;9.148;2023-02-22T14:03:05;23.60;48.10
62589;DHT22;58504;48.770;9.148;2023-02-22T14:05:50;23.50;48.30
62589;DHT22;58504;48.770;9.148;2023-02-22T14:08:37;23.40;48.40
62589;DHT22;58504;48.770;9.148;2023-02-22T14:11:07;23.40;48.80
62589;DHT22;58504;48.770;9.148;2023-02-22T14:14:13;23.60;49.40
62589;DHT22;58504;48.770;9.148;2023-02-22T14:16:43;24.00;48.00
62589;DHT22;58504;48.770;9.148;2023-02-22T14:19:16;24.60;47.10
62589;DHT22;58504;48.770;9.148;2023-02-22T14:21:58;24.90;46.20
62589;DHT22;58504;48.770;9.148;2023-02-22T14:24:27;25.20;45.60
62589;DHT22;58504;48.770;9.148;2023-02-22T14:26:58;25.30;45.20
62589;DHT22;58504;48.770;9.148;2023-02-22T14:29:26;25.30;45.00
62589;DHT22;58504;48.770;9.148;2023-02-22T14:32:00;25.30;45.30
62589;DHT22;58504;48.770;9.148;2023-02-22T14:34:40;25.20;45.50
62589;DHT22;58504;48.770;9.148;2023-02-22T14:37:10;25.10;45.60
62589;DHT22;58504;48.770;9.148;2023-02-22T14:39:41;24.90;45.60
62589;DHT22;58504;48.770;9.148;2023-02-22T14:42:12;24.90;45.80
62589;DHT22;58504;48.770;9.148;2023-02-22T14:44:42;24.80;46.00
62589;DHT22;58504;48.770;9.148;2023-02-22T14:47:18;24.60;46.10
62589;DHT22;58504;48.770;9.148;2023-02-22T14:49:47;24.50;46.30
62589;DHT22;58504;48.770;9.148;2023-02-22T14:52:20;24.40;46.50
62589;DHT22;58504;48.770;9.148;2023-02-22T14:54:56;24.30;46.70
62589;DHT22;58504;48.770;9.148;2023-02-22T14:57:27;24.20;46.90
62589;DHT22;58504;48.770;9.148;2023-02-22T15:00:04;24.00;47.10
62589;DHT22;58504;48.770;9.148;2023-02-22T15:02:46;23.90;47.20
62589;DHT22;58504;48.770;9.148;2023-02-22T15:05:14;23.80;47.40
62589;DHT22;58504;48.770;9.148;2023-02-22T15:07:52;23.70;47.60
62589;DHT22;58504;48.770;9.148;2023-02-22T15:10:23;23.60;48.00
62589;DHT22;58504;48.770;9.148;2023-02-22T15:12:53;23.50;48.70
62589;DHT22;58504;48.770;9.148;2023-02-22T15:15:33;23.40;48.40
62589;DHT22;58504;48.770;9.148;2023-02-22T15:18:02;23.30;48.70
62589;DHT22;58504;48.770;9.148;2023-02-22T15:20:33;23.30;48.60
62589;DHT22;58504;48.770;9.148;2023-02-22T15:23:00;23.20;48.80
62589;DHT22;58504;48.770;9.148;2023-02-22T15:25:28;23.10;48.90
62589;DHT22;58504;48.770;9.148;2023-02-22T15:28:00;23.10;49.10
62589;DHT22;58504;48.770;9.148;2023-02-22T15:30:30;23.30;48.80
62589;DHT22;58504;48.770;9.148;2023-02-22T15:33:11;23.60;48.30
62589;DHT22;58504;48.770;9.148;2023-02-22T15:35:39;23.90;47.60
62589;DHT22;58504;48.770;9.148;2023-02-22T15:38:17;24.20;47.10
62589;DHT22;58504;48.770;9.148;2023-02-22T15:40:46;24.40;46.70
62589;DHT22;58504;48.770;9.148;2023-02-22T15:43:18;24.60;46.40
62589;DHT22;58504;48.770;9.148;2023-02-22T15:45:48;24.60;46.10
62589;DHT22;58504;48.770;9.148;2023-02-22T15:48:17;24.70;46.10
62589;DHT22;58504;48.770;9.148;2023-02-22T15:51:00;24.60;46.10
62589;DHT22;58504;48.770;9.148;2023-02-22T15:53:34;24.60;46.30
62589;DHT22;58504;48.770;9.148;2023-02-22T15:56:08;24.50;46.40
62589;DHT22;58504;48.770;9.148;2023-02-22T15:58:36;24.40;46.40